Map

Track Data

SID SEASON NUMBER BASIN SUBBASIN NAME ISO_TIME NATURE LAT LON WMO_WIND WMO_PRES WMO_AGENCY TRACK_TYPE DIST2LAND LANDFALL IFLAG USA_AGENCY USA_ATCF_ID USA_LAT USA_LON USA_RECORD USA_STATUS USA_WIND USA_PRES USA_SSHS USA_R34_NE USA_R34_SE USA_R34_SW USA_R34_NW USA_R50_NE USA_R50_SE USA_R50_SW USA_R50_NW USA_R64_NE USA_R64_SE USA_R64_SW USA_R64_NW USA_POCI USA_ROCI USA_RMW USA_EYE TOKYO_LAT TOKYO_LON TOKYO_GRADE TOKYO_WIND TOKYO_PRES TOKYO_R50_DIR TOKYO_R50_LONG TOKYO_R50_SHORT TOKYO_R30_DIR TOKYO_R30_LONG TOKYO_R30_SHORT TOKYO_LAND CMA_LAT CMA_LON CMA_CAT CMA_WIND CMA_PRES HKO_LAT HKO_LON HKO_CAT HKO_WIND HKO_PRES NEWDELHI_LAT NEWDELHI_LON NEWDELHI_GRADE NEWDELHI_WIND NEWDELHI_PRES NEWDELHI_CI NEWDELHI_DP NEWDELHI_POCI REUNION_LAT REUNION_LON REUNION_TYPE REUNION_WIND REUNION_PRES REUNION_TNUM REUNION_CI REUNION_RMW REUNION_R34_NE REUNION_R34_SE REUNION_R34_SW REUNION_R34_NW REUNION_R50_NE REUNION_R50_SE REUNION_R50_SW REUNION_R50_NW REUNION_R64_NE REUNION_R64_SE REUNION_R64_SW REUNION_R64_NW BOM_LAT BOM_LON BOM_TYPE BOM_WIND BOM_PRES BOM_TNUM BOM_CI BOM_RMW BOM_R34_NE BOM_R34_SE BOM_R34_SW BOM_R34_NW BOM_R50_NE BOM_R50_SE BOM_R50_SW BOM_R50_NW BOM_R64_NE BOM_R64_SE BOM_R64_SW BOM_R64_NW BOM_ROCI BOM_POCI BOM_EYE BOM_POS_METHOD BOM_PRES_METHOD NADI_LAT NADI_LON NADI_CAT NADI_WIND NADI_PRES WELLINGTON_LAT WELLINGTON_LON WELLINGTON_WIND WELLINGTON_PRES DS824_LAT DS824_LON DS824_STAGE DS824_WIND DS824_PRES TD9636_LAT TD9636_LON TD9636_STAGE TD9636_WIND TD9636_PRES TD9635_LAT TD9635_LON TD9635_WIND TD9635_PRES TD9635_ROCI NEUMANN_LAT NEUMANN_LON NEUMANN_CLASS NEUMANN_WIND NEUMANN_PRES MLC_LAT MLC_LON MLC_CLASS MLC_WIND MLC_PRES USA_GUST BOM_GUST BOM_GUST_PER REUNION_GUST REUNION_GUST_PER USA_SEAHGT USA_SEARAD_NE USA_SEARAD_SE USA_SEARAD_SW USA_SEARAD_NW STORM_SPEED STORM_DIR
1973339N07088 1973 131 NI BB NOT_NAMED 1973-12-05 00:00:00 TS 7.40000 88.2000 main 697 664 O________OO___ jtwc_io IO141973 7.40000 88.2000 -1 7.40000 88.2000 TC 7.40000 88.2000 1 7 297
1973339N07088 1973 131 NI BB NOT_NAMED 1973-12-05 03:00:00 TS 7.55165 87.8972 main 665 634 P________PP___ IO141973 7.53755 87.8925 -1 7.53755 87.8925 TC 7.57986 87.9065 1 7 298
1973339N07088 1973 131 NI BB NOT_NAMED 1973-12-05 06:00:00 TS 7.71923 87.6067 main 634 613 O________OP___ jtwc_io IO141973 7.70000 87.6000 -1 7.70000 87.6000 TC 7.75769 87.6202 1 7 303
1973339N07088 1973 131 NI BB NOT_NAMED 1973-12-05 09:00:00 TS 7.91055 87.3396 main 604 586 P________PP___ IO141973 7.89998 87.3350 -1 7.89998 87.3350 TC 7.93167 87.3489 1 6 307
1973339N07088 1973 131 NI BB NOT_NAMED 1973-12-05 12:00:00 TS 8.10000 87.1000 main 586 566 O________OO___ jtwc_io IO141973 8.10000 87.1000 -1 8.10000 87.1000 TC 8.10000 87.1000 1 6 307
1973339N07088 1973 131 NI BB NOT_NAMED 1973-12-05 15:00:00 TS 8.25424 86.8833 main 567 547 P________PP___ IO141973 8.24999 86.8850 -1 8.24999 86.8850 TC 8.26275 86.8799 1 5 308
1973339N07088 1973 131 NI BB NOT_NAMED 1973-12-05 18:00:00 TS 8.40915 86.6966 main 547 529 O________OP___ jtwc_io IO141973 8.40000 86.7000 -1 8.40000 86.7000 TC 8.42744 86.6899 1 5 314
1973339N07088 1973 131 NI BB NOT_NAMED 1973-12-05 21:00:00 TS 8.59113 86.5283 main 529 521 P________PP___ IO141973 8.58500 86.5275 -1 8.58500 86.5275 TC 8.60340 86.5300 1 5 323
1973339N07088 1973 131 NI BB NOT_NAMED 1973-12-06 00:00:00 TS 8.80000 86.4000 main 524 519 O________OO___ jtwc_io IO141973 8.80000 86.4000 XX 35 -5 8.80000 86.4000 TC 35 8.80000 86.4000 1 5 336
1973339N07088 1973 131 NI BB NOT_NAMED 1973-12-06 03:00:00 TS 9.03779 86.3270 main 519 519 P________PP___ IO141973 9.04249 86.3425 XX 37 -5 9.04249 86.3425 TC 37 9.02839 86.2962 1 5 346
1973339N07088 1973 131 NI BB NOT_NAMED 1973-12-06 06:00:00 TS 9.29248 86.2733 main 530 524 O________OP___ jtwc_io IO141973 9.30000 86.3000 XX 40 -5 9.30000 86.3000 TC 40 9.27744 86.2199 1 5 345
1973339N07088 1973 131 NI BB NOT_NAMED 1973-12-06 09:00:00 TS 9.55093 86.1862 main 533 528 P________PP___ IO141973 9.55751 86.2000 XX 42 -5 9.55751 86.2000 TC 42 9.53778 86.1587 1 5 341
1973339N07088 1973 131 NI BB NOT_NAMED 1973-12-06 12:00:00 TS 9.80000 86.1000 main 533 533 O________OO___ jtwc_io IO141973 9.80000 86.1000 XX 45 -5 9.80000 86.1000 TC 45 9.80000 86.1000 2 5 341
1973339N07088 1973 131 NI BB NOT_NAMED 1973-12-06 15:00:00 TS 9.99948 86.0376 main 533 533 P________PP___ IO141973 9.99249 86.0499 XX 47 -5 9.99249 86.0499 TC 47 10.0135 86.0128 2 4 343
1973339N07088 1973 131 NI BB NOT_NAMED 1973-12-06 18:00:00 TS 10.2108 85.9759 main 542 538 O________OP___ jtwc_io IO141973 10.2000 86.0000 XX 50 -5 10.2000 86.0000 TC 50 10.2325 85.9275 2 5 342
1973339N07088 1973 131 NI BB NOT_NAMED 1973-12-06 21:00:00 TS 10.4701 85.8795 main 547 542 P________PP___ IO141973 10.4625 85.8925 XX 52 -5 10.4625 85.8925 TC 52 10.4853 85.8535 2 6 344
1973339N07088 1973 131 NI BB NOT_NAMED 1973-12-07 00:00:00 TS 10.8000 85.8000 main 552 552 O________OO___ jtwc_io IO141973 10.8000 85.8000 XX 55 -5 10.8000 85.8000 TC 55 10.8000 85.8000 2 8 353
1973339N07088 1973 131 NI BB NOT_NAMED 1973-12-07 03:00:00 TS 11.2168 85.7814 main 575 575 P________PP___ IO141973 11.2200 85.7850 XX 57 -5 11.2200 85.7850 TC 57 11.2103 85.7743 2 9 359
1973339N07088 1973 131 NI BB NOT_NAMED 1973-12-07 06:00:00 TS 11.6942 85.7900 main 605 605 O________OP___ jtwc_io IO141973 11.7000 85.8000 XX 60 -5 11.7000 85.8000 TC 60 11.6825 85.7700 2 10 1
1973339N07088 1973 131 NI BB NOT_NAMED 1973-12-07 09:00:00 TS 12.1962 85.7935 main 609 576 P________PP___ IO141973 12.2000 85.8000 XX 60 -5 12.2000 85.8000 TC 60 12.1885 85.7806 2 10 0
1973339N07088 1973 131 NI BB NOT_NAMED 1973-12-07 12:00:00 TS 12.7000 85.8000 main 576 543 O________OO___ jtwc_io IO141973 12.7000 85.8000 XX 60 -5 12.7000 85.8000 TC 60 12.7000 85.8000 4 10 0
1973339N07088 1973 131 NI BB NOT_NAMED 1973-12-07 15:00:00 TS 13.1516 85.7956 main 535 504 P________PP___ IO141973 13.1500 85.7925 XX 60 -5 13.1500 85.7925 TC 60 13.1547 85.8018 4 9 0
1973339N07088 1973 131 NI BB NOT_NAMED 1973-12-07 18:00:00 TS 13.6042 85.8043 main 504 468 O________OP___ jtwc_io IO141973 13.6000 85.8000 XX 60 -5 13.6000 85.8000 TC 60 13.6125 85.8130 4 9 2
1973339N07088 1973 131 NI BB NOT_NAMED 1973-12-07 21:00:00 TS 14.0864 85.8376 main 468 442 P________PP___ IO141973 14.0850 85.8350 XX 60 -5 14.0850 85.8350 TC 60 14.0891 85.8426 4 10 6
1973339N07088 1973 131 NI BB NOT_NAMED 1973-12-08 00:00:00 TS 14.6000 85.9000 main 442 409 O________OO___ jtwc_io IO141973 14.6000 85.9000 XX 60 -5 14.6000 85.9000 TC 60 14.6000 85.9000 4 11 7
1973339N07088 1973 131 NI BB NOT_NAMED 1973-12-08 03:00:00 TS 15.1315 85.9743 main 409 360 P________PP___ IO141973 15.1275 85.9851 XX 57 -5 15.1275 85.9851 TC 57 15.1395 85.9527 4 11 9
1973339N07088 1973 131 NI BB NOT_NAMED 1973-12-08 06:00:00 TS 15.7057 86.0798 main 360 315 O________OP___ jtwc_io IO141973 15.7000 86.1000 XX 55 -5 15.7000 86.1000 TC 55 15.7172 86.0395 4 12 11
1973339N07088 1973 131 NI BB NOT_NAMED 1973-12-08 09:00:00 TS 16.3304 86.2073 main 315 276 P________PP___ IO141973 16.3274 86.2203 XX 55 -5 16.3274 86.2203 TC 55 16.3363 86.1814 4 13 13
1973339N07088 1973 131 NI BB NOT_NAMED 1973-12-08 12:00:00 TS 17.0000 86.4000 main 276 250 O________OO___ jtwc_io IO141973 17.0000 86.4000 XX 55 -5 17.0000 86.4000 TC 55 17.0000 86.4000 4 14 18
1973339N07088 1973 131 NI BB NOT_NAMED 1973-12-08 15:00:00 TS 17.6830 86.6552 main 252 189 P________PP___ IO141973 17.6774 86.6480 XX 55 -5 17.6774 86.6480 TC 55 17.6942 86.6697 4 15 22
1973339N07088 1973 131 NI BB NOT_NAMED 1973-12-08 18:00:00 TS 18.4105 87.0077 main 189 145 O________OP___ jtwc_io IO141973 18.4000 87.0000 XX 55 -5 18.4000 87.0000 TC 55 18.4316 87.0229 4 17 27
1973339N07088 1973 131 NI BB NOT_NAMED 1973-12-08 21:00:00 TS 19.1910 87.4534 main 145 127 P________PP___ IO141973 19.1849 87.4479 XX 52 -5 19.1849 87.4479 TC 52 19.2032 87.4646 4 19 31
1973339N07088 1973 131 NI BB NOT_NAMED 1973-12-09 00:00:00 TS 20.0000 88.0000 main 130 90 O________OO___ jtwc_io IO141973 20.0000 88.0000 XX 50 -5 20.0000 88.0000 TC 50 20.0000 88.0000 4 20 34
1973339N07088 1973 131 NI BB NOT_NAMED 1973-12-09 03:00:00 TS 20.7994 88.6140 main 90 15 P________PP___ IO141973 20.7922 88.6059 XX 47 -5 20.7922 88.6059 TC 47 20.8137 88.6303 4 20 37
1973339N07088 1973 131 NI BB NOT_NAMED 1973-12-09 06:00:00 TS 21.6128 89.3128 main 15 0 O________OP___ jtwc_io IO141973 21.6000 89.3000 XX 45 -5 21.6000 89.3000 TC 45 21.6385 89.3385 4 22 40
1973339N07088 1973 131 NI BB NOT_NAMED 1973-12-09 09:00:00 TS 22.4503 90.0844 main 0 0 P________PP___ IO141973 22.4409 90.0752 XX -5 22.4409 90.0752 TC 22.4691 90.1028 4 22 41
1973339N07088 1973 131 NI BB NOT_NAMED 1973-12-09 12:00:00 TS 23.3000 90.9000 main 0 O________OO___ jtwc_io IO141973 23.3000 90.9000 -1 23.3000 90.9000 TC 23.3000 90.9000 6 23 41

About IBTrACS Database

This database is a web-friendly format of International Best Track Archive for Climate Stewardship (IBTrACS), a global best track data archive curated by NOAA dating back to 1842.

Updated: 2021-10-08